首页
METAR-TAF:

METAR-TAF

机场 :

圣杜蒙特机场

里约热内卢, 里約熱內盧州, 巴西

纬度: 22-54S, 经度: 043-10W, 海拔: 3米

当前天气观测

该预报发布于40分钟前的12:00 UTC
风速2节,风向多变
温度 22°C
湿度 69%
气压 1025 hPa
能見度: 7000
散云层高于2000英尺
多云层高于3000英尺

METAR: SBRJ 231200Z VRB02KT 7000 SCT020 BKN030 22/16 Q1025

时间: 09:40 (12:40 UTC)

预报

该预报发布于4小时和38分钟前的08:02 UTC
预报有效从23日的 12点(UTC)到 23日的 24点(UTC)
风速5节,风向北转西北
能見度: 7000
散云层高于1500英尺
成为
从 23日的 14点(UTC)到 23日的 16点(UTC)
风速5节,风向
能見度: 8000
成为
从 23日的 21点(UTC)到 23日的 23点(UTC)
风速5节,风向南转南东

TAF: SBRJ 230802Z 2312/2324 33005KT 7000 SCT015 TX23/2317Z TN19/2324Z BECMG 2314/2316 18005KT 8000 NSC BECMG 2321/2323 15005KT RMK PGA

超过4000个机场的气象观测和天气预报(METAR&TAF报告)。

可查询的气象台以黄色和红色小点在地图上表示。

将鼠标移到小点上方,可查看气象台名称。

然后点击查看天气观测和预报。

如需切换地图:点击带黑十字的绿色按钮放大地图;点击带横线的绿色按钮缩小地图;或者点击绿色箭头查看邻近地区的地图。


METAR-TAF: